sensor_id;sensor_type;location;lat;lon;timestamp;temperature;humidity
14475;DHT22;7323;50.848;4.334;2023-07-09T00:01:48;27.40;1.00
14475;DHT22;7323;50.848;4.334;2023-07-09T00:04:14;27.30;1.00
14475;DHT22;7323;50.848;4.334;2023-07-09T00:06:40;27.30;1.00
14475;DHT22;7323;50.848;4.334;2023-07-09T00:09:12;27.40;1.00
14475;DHT22;7323;50.848;4.334;2023-07-09T00:11:40;27.40;1.00
14475;DHT22;7323;50.848;4.334;2023-07-09T00:14:06;27.40;1.00
14475;DHT22;7323;50.848;4.334;2023-07-09T00:16:31;27.40;1.00
14475;DHT22;7323;50.848;4.334;2023-07-09T00:18:58;27.40;1.00
14475;DHT22;7323;50.848;4.334;2023-07-09T00:21:23;27.40;1.00
14475;DHT22;7323;50.848;4.334;2023-07-09T00:23:49;27.40;1.00
14475;DHT22;7323;50.848;4.334;2023-07-09T00:26:16;27.40;1.00
14475;DHT22;7323;50.848;4.334;2023-07-09T00:28:43;27.40;1.00
14475;DHT22;7323;50.848;4.334;2023-07-09T00:31:16;27.40;1.00
14475;DHT22;7323;50.848;4.334;2023-07-09T00:33:44;27.30;1.00
14475;DHT22;7323;50.848;4.334;2023-07-09T00:36:29;27.30;1.00
14475;DHT22;7323;50.848;4.334;2023-07-09T00:38:57;27.30;1.00
14475;DHT22;7323;50.848;4.334;2023-07-09T00:41:34;27.30;1.00
14475;DHT22;7323;50.848;4.334;2023-07-09T00:44:28;27.30;1.00
14475;DHT22;7323;50.848;4.334;2023-07-09T00:49:29;27.40;1.00
14475;DHT22;7323;50.848;4.334;2023-07-09T00:51:57;27.50;1.00
14475;DHT22;7323;50.848;4.334;2023-07-09T00:54:38;27.60;1.00
14475;DHT22;7323;50.848;4.334;2023-07-09T00:57:14;27.50;1.00
14475;DHT22;7323;50.848;4.334;2023-07-09T00:59:46;27.50;1.00
14475;DHT22;7323;50.848;4.334;2023-07-09T01:02:13;27.40;1.00
14475;DHT22;7323;50.848;4.334;2023-07-09T01:04:40;27.30;1.00
14475;DHT22;7323;50.848;4.334;2023-07-09T01:07:08;27.30;1.00
14475;DHT22;7323;50.848;4.334;2023-07-09T01:09:34;27.20;1.00
14475;DHT22;7323;50.848;4.334;2023-07-09T01:12:08;27.30;1.00
14475;DHT22;7323;50.848;4.334;2023-07-09T01:14:35;27.10;1.00
14475;DHT22;7323;50.848;4.334;2023-07-09T01:17:03;27.10;1.00
14475;DHT22;7323;50.848;4.334;2023-07-09T01:19:41;27.10;1.00
14475;DHT22;7323;50.848;4.334;2023-07-09T01:22:19;27.00;1.00
14475;DHT22;7323;50.848;4.334;2023-07-09T01:27:18;27.00;1.00
14475;DHT22;7323;50.848;4.334;2023-07-09T01:29:45;26.90;1.00
14475;DHT22;7323;50.848;4.334;2023-07-09T01:32:16;26.80;1.00
14475;DHT22;7323;50.848;4.334;2023-07-09T01:34:47;26.70;1.00
14475;DHT22;7323;50.848;4.334;2023-07-09T01:37:18;26.70;1.00
14475;DHT22;7323;50.848;4.334;2023-07-09T01:39:50;26.80;1.00
14475;DHT22;7323;50.848;4.334;2023-07-09T01:42:17;26.70;1.00
14475;DHT22;7323;50.848;4.334;2023-07-09T01:44:44;26.50;1.00
14475;DHT22;7323;50.848;4.334;2023-07-09T01:47:11;26.40;1.00
14475;DHT22;7323;50.848;4.334;2023-07-09T01:49:37;26.30;1.00
14475;DHT22;7323;50.848;4.334;2023-07-09T01:52:06;26.30;1.00
14475;DHT22;7323;50.848;4.334;2023-07-09T01:54:35;26.40;1.00
14475;DHT22;7323;50.848;4.334;2023-07-09T01:57:20;26.40;1.00
14475;DHT22;7323;50.848;4.334;2023-07-09T01:59:54;26.50;1.00
14475;DHT22;7323;50.848;4.334;2023-07-09T02:02:22;26.50;1.00
14475;DHT22;7323;50.848;4.334;2023-07-09T02:04:49;26.60;1.00
14475;DHT22;7323;50.848;4.334;2023-07-09T02:07:16;26.70;1.00
14475;DHT22;7323;50.848;4.334;2023-07-09T02:09:42;26.70;1.00
14475;DHT22;7323;50.848;4.334;2023-07-09T02:12:09;26.70;1.00
14475;DHT22;7323;50.848;4.334;2023-07-09T02:14:39;26.60;1.00
14475;DHT22;7323;50.848;4.334;2023-07-09T02:17:05;26.50;1.00
14475;DHT22;7323;50.848;4.334;2023-07-09T02:19:43;26.40;1.00
14475;DHT22;7323;50.848;4.334;2023-07-09T02:22:10;26.40;1.00
14475;DHT22;7323;50.848;4.334;2023-07-09T02:24:36;26.40;1.00
14475;DHT22;7323;50.848;4.334;2023-07-09T02:27:05;26.50;1.00
14475;DHT22;7323;50.848;4.334;2023-07-09T02:29:32;26.70;1.00
14475;DHT22;7323;50.848;4.334;2023-07-09T02:31:59;26.70;1.00
14475;DHT22;7323;50.848;4.334;2023-07-09T02:34:27;26.70;1.00
14475;DHT22;7323;50.848;4.334;2023-07-09T02:36:57;26.70;1.00
14475;DHT22;7323;50.848;4.334;2023-07-09T02:39:24;26.70;1.00
14475;DHT22;7323;50.848;4.334;2023-07-09T02:41:50;26.70;1.00
14475;DHT22;7323;50.848;4.334;2023-07-09T02:44:16;26.80;1.00
14475;DHT22;7323;50.848;4.334;2023-07-09T02:46:43;26.80;1.00
14475;DHT22;7323;50.848;4.334;2023-07-09T02:49:09;26.80;1.00
14475;DHT22;7323;50.848;4.334;2023-07-09T02:51:36;26.90;1.00
14475;DHT22;7323;50.848;4.334;2023-07-09T02:54:02;26.70;1.00
14475;DHT22;7323;50.848;4.334;2023-07-09T02:56:30;26.80;1.00
14475;DHT22;7323;50.848;4.334;2023-07-09T02:58:56;26.70;1.00
14475;DHT22;7323;50.848;4.334;2023-07-09T03:01:21;26.70;1.00
14475;DHT22;7323;50.848;4.334;2023-07-09T03:03:51;26.70;1.00
14475;DHT22;7323;50.848;4.334;2023-07-09T03:06:19;26.70;1.00
14475;DHT22;7323;50.848;4.334;2023-07-09T03:08:45;26.70;1.00
14475;DHT22;7323;50.848;4.334;2023-07-09T03:11:13;26.60;1.00
14475;DHT22;7323;50.848;4.334;2023-07-09T03:13:39;26.70;1.00
14475;DHT22;7323;50.848;4.334;2023-07-09T03:16:05;26.60;1.00
14475;DHT22;7323;50.848;4.334;2023-07-09T03:18:33;26.50;1.00
14475;DHT22;7323;50.848;4.334;2023-07-09T03:20:59;26.60;1.00
14475;DHT22;7323;50.848;4.334;2023-07-09T03:23:25;26.50;1.00
14475;DHT22;7323;50.848;4.334;2023-07-09T03:25:50;26.60;1.00
14475;DHT22;7323;50.848;4.334;2023-07-09T03:28:17;26.50;1.00
14475;DHT22;7323;50.848;4.334;2023-07-09T03:30:44;26.50;1.00
14475;DHT22;7323;50.848;4.334;2023-07-09T03:33:11;26.30;1.00
14475;DHT22;7323;50.848;4.334;2023-07-09T03:35:37;26.10;1.00
14475;DHT22;7323;50.848;4.334;2023-07-09T03:38:05;25.90;1.00
14475;DHT22;7323;50.848;4.334;2023-07-09T03:40:31;25.50;1.00
14475;DHT22;7323;50.848;4.334;2023-07-09T03:42:57;25.30;1.00
14475;DHT22;7323;50.848;4.334;2023-07-09T03:45:23;25.10;1.00
14475;DHT22;7323;50.848;4.334;2023-07-09T03:47:49;25.00;1.00
14475;DHT22;7323;50.848;4.334;2023-07-09T03:50:14;25.00;1.00
14475;DHT22;7323;50.848;4.334;2023-07-09T03:52:40;25.20;1.00
14475;DHT22;7323;50.848;4.334;2023-07-09T03:55:07;25.40;1.00
14475;DHT22;7323;50.848;4.334;2023-07-09T03:57:33;25.20;1.00
14475;DHT22;7323;50.848;4.334;2023-07-09T03:59:59;25.00;1.00
14475;DHT22;7323;50.848;4.334;2023-07-09T04:02:25;25.00;1.00
14475;DHT22;7323;50.848;4.334;2023-07-09T04:04:51;25.00;1.00
14475;DHT22;7323;50.848;4.334;2023-07-09T04:07:16;24.90;1.00
14475;DHT22;7323;50.848;4.334;2023-07-09T04:09:42;25.00;1.00
14475;DHT22;7323;50.848;4.334;2023-07-09T04:12:11;25.20;1.00
14475;DHT22;7323;50.848;4.334;2023-07-09T04:14:37;25.30;1.00
14475;DHT22;7323;50.848;4.334;2023-07-09T04:17:02;25.10;1.00
14475;DHT22;7323;50.848;4.334;2023-07-09T04:19:28;24.90;1.00
14475;DHT22;7323;50.848;4.334;2023-07-09T04:21:55;24.90;1.00
14475;DHT22;7323;50.848;4.334;2023-07-09T04:24:20;24.90;1.00
14475;DHT22;7323;50.848;4.334;2023-07-09T04:26:47;24.90;1.00
14475;DHT22;7323;50.848;4.334;2023-07-09T04:29:13;24.90;1.00
14475;DHT22;7323;50.848;4.334;2023-07-09T04:31:40;25.00;1.00
14475;DHT22;7323;50.848;4.334;2023-07-09T04:34:06;24.90;1.00
14475;DHT22;7323;50.848;4.334;2023-07-09T04:36:31;24.90;1.00
14475;DHT22;7323;50.848;4.334;2023-07-09T04:38:57;24.90;1.00
14475;DHT22;7323;50.848;4.334;2023-07-09T04:41:24;24.90;1.00
14475;DHT22;7323;50.848;4.334;2023-07-09T04:43:50;24.90;1.00
14475;DHT22;7323;50.848;4.334;2023-07-09T04:46:16;25.00;1.00
14475;DHT22;7323;50.848;4.334;2023-07-09T04:48:42;25.00;1.00
14475;DHT22;7323;50.848;4.334;2023-07-09T04:51:07;25.00;1.00
14475;DHT22;7323;50.848;4.334;2023-07-09T04:53:34;24.90;1.00
14475;DHT22;7323;50.848;4.334;2023-07-09T04:56:00;24.90;1.00
14475;DHT22;7323;50.848;4.334;2023-07-09T04:58:28;24.90;1.00
14475;DHT22;7323;50.848;4.334;2023-07-09T05:00:57;24.90;1.00
14475;DHT22;7323;50.848;4.334;2023-07-09T05:03:22;24.90;1.00
14475;DHT22;7323;50.848;4.334;2023-07-09T05:05:48;25.00;1.00
14475;DHT22;7323;50.848;4.334;2023-07-09T05:08:15;25.10;1.00
14475;DHT22;7323;50.848;4.334;2023-07-09T05:10:51;25.20;1.00
14475;DHT22;7323;50.848;4.334;2023-07-09T05:13:18;24.90;1.00
14475;DHT22;7323;50.848;4.334;2023-07-09T05:15:46;24.80;1.00
14475;DHT22;7323;50.848;4.334;2023-07-09T05:18:13;24.80;1.00
14475;DHT22;7323;50.848;4.334;2023-07-09T05:20:40;24.80;1.00
14475;DHT22;7323;50.848;4.334;2023-07-09T05:23:10;25.00;1.00
14475;DHT22;7323;50.848;4.334;2023-07-09T05:25:36;25.00;1.00
14475;DHT22;7323;50.848;4.334;2023-07-09T05:28:03;25.00;1.00
14475;DHT22;7323;50.848;4.334;2023-07-09T05:30:30;25.00;1.00
14475;DHT22;7323;50.848;4.334;2023-07-09T05:32:58;25.00;1.00
14475;DHT22;7323;50.848;4.334;2023-07-09T05:35:25;24.90;1.00
14475;DHT22;7323;50.848;4.334;2023-07-09T05:37:54;24.80;1.00
14475;DHT22;7323;50.848;4.334;2023-07-09T05:40:20;24.80;1.00
14475;DHT22;7323;50.848;4.334;2023-07-09T05:42:47;24.80;1.00
14475;DHT22;7323;50.848;4.334;2023-07-09T05:45:14;24.80;1.00
14475;DHT22;7323;50.848;4.334;2023-07-09T05:47:40;24.90;1.00
14475;DHT22;7323;50.848;4.334;2023-07-09T05:50:06;24.90;1.00
14475;DHT22;7323;50.848;4.334;2023-07-09T05:52:32;24.90;1.00
14475;DHT22;7323;50.848;4.334;2023-07-09T05:54:59;25.00;1.00
14475;DHT22;7323;50.848;4.334;2023-07-09T05:57:26;25.20;1.00
14475;DHT22;7323;50.848;4.334;2023-07-09T05:59:52;25.30;1.00
14475;DHT22;7323;50.848;4.334;2023-07-09T06:02:19;25.20;1.00
14475;DHT22;7323;50.848;4.334;2023-07-09T06:04:45;25.20;1.00
14475;DHT22;7323;50.848;4.334;2023-07-09T06:07:12;25.10;1.00
14475;DHT22;7323;50.848;4.334;2023-07-09T06:09:42;25.20;1.00
14475;DHT22;7323;50.848;4.334;2023-07-09T06:12:08;25.20;1.00
14475;DHT22;7323;50.848;4.334;2023-07-09T06:14:35;25.20;1.00
14475;DHT22;7323;50.848;4.334;2023-07-09T06:17:00;25.20;1.00
14475;DHT22;7323;50.848;4.334;2023-07-09T06:19:27;25.10;1.00
14475;DHT22;7323;50.848;4.334;2023-07-09T06:21:53;25.00;1.00
14475;DHT22;7323;50.848;4.334;2023-07-09T06:24:19;24.80;1.00
14475;DHT22;7323;50.848;4.334;2023-07-09T06:26:45;24.80;1.00
14475;DHT22;7323;50.848;4.334;2023-07-09T06:29:11;24.80;1.00
14475;DHT22;7323;50.848;4.334;2023-07-09T06:31:37;24.70;1.00
14475;DHT22;7323;50.848;4.334;2023-07-09T06:34:03;24.80;1.00
14475;DHT22;7323;50.848;4.334;2023-07-09T06:36:29;24.90;1.00
14475;DHT22;7323;50.848;4.334;2023-07-09T06:38:55;25.00;1.00
14475;DHT22;7323;50.848;4.334;2023-07-09T06:41:21;25.10;1.00
14475;DHT22;7323;50.848;4.334;2023-07-09T06:43:47;25.30;1.00
14475;DHT22;7323;50.848;4.334;2023-07-09T06:46:14;25.50;1.00
14475;DHT22;7323;50.848;4.334;2023-07-09T06:48:40;25.60;1.00
14475;DHT22;7323;50.848;4.334;2023-07-09T06:51:05;25.70;1.00
14475;DHT22;7323;50.848;4.334;2023-07-09T06:53:32;25.90;1.00
14475;DHT22;7323;50.848;4.334;2023-07-09T06:55:57;25.90;1.00
14475;DHT22;7323;50.848;4.334;2023-07-09T06:58:28;25.60;1.00
14475;DHT22;7323;50.848;4.334;2023-07-09T07:00:54;25.50;1.00
14475;DHT22;7323;50.848;4.334;2023-07-09T07:03:21;25.40;1.00
14475;DHT22;7323;50.848;4.334;2023-07-09T07:05:50;25.40;1.00
14475;DHT22;7323;50.848;4.334;2023-07-09T07:08:18;25.40;1.00
14475;DHT22;7323;50.848;4.334;2023-07-09T07:11:04;25.50;1.00
14475;DHT22;7323;50.848;4.334;2023-07-09T07:13:33;25.70;1.00
14475;DHT22;7323;50.848;4.334;2023-07-09T07:16:06;25.80;1.00
14475;DHT22;7323;50.848;4.334;2023-07-09T07:18:34;25.70;1.00
14475;DHT22;7323;50.848;4.334;2023-07-09T07:21:00;25.90;1.00
14475;DHT22;7323;50.848;4.334;2023-07-09T07:23:26;26.00;1.00
14475;DHT22;7323;50.848;4.334;2023-07-09T07:25:52;26.20;1.00
14475;DHT22;7323;50.848;4.334;2023-07-09T07:28:18;26.40;1.00
14475;DHT22;7323;50.848;4.334;2023-07-09T07:30:43;26.20;1.00
14475;DHT22;7323;50.848;4.334;2023-07-09T07:33:09;26.00;1.00
14475;DHT22;7323;50.848;4.334;2023-07-09T07:35:35;25.90;1.00
14475;DHT22;7323;50.848;4.334;2023-07-09T07:38:02;26.00;1.00
14475;DHT22;7323;50.848;4.334;2023-07-09T07:40:27;25.90;1.00
14475;DHT22;7323;50.848;4.334;2023-07-09T07:42:53;25.80;1.00
14475;DHT22;7323;50.848;4.334;2023-07-09T07:45:20;25.60;1.00
14475;DHT22;7323;50.848;4.334;2023-07-09T07:47:46;25.70;1.00
14475;DHT22;7323;50.848;4.334;2023-07-09T07:50:13;25.70;1.00
14475;DHT22;7323;50.848;4.334;2023-07-09T07:52:39;25.80;1.00
14475;DHT22;7323;50.848;4.334;2023-07-09T07:55:07;25.90;1.00
14475;DHT22;7323;50.848;4.334;2023-07-09T07:57:36;25.70;1.00
14475;DHT22;7323;50.848;4.334;2023-07-09T08:00:21;25.80;1.00
14475;DHT22;7323;50.848;4.334;2023-07-09T08:02:47;25.70;1.00
14475;DHT22;7323;50.848;4.334;2023-07-09T08:05:16;25.70;1.00
14475;DHT22;7323;50.848;4.334;2023-07-09T08:07:45;25.80;1.00
14475;DHT22;7323;50.848;4.334;2023-07-09T08:10:16;25.90;1.00
14475;DHT22;7323;50.848;4.334;2023-07-09T08:12:42;26.00;1.00
14475;DHT22;7323;50.848;4.334;2023-07-09T08:15:08;26.00;1.00
14475;DHT22;7323;50.848;4.334;2023-07-09T08:17:36;26.20;1.00
14475;DHT22;7323;50.848;4.334;2023-07-09T08:20:12;26.30;1.00
14475;DHT22;7323;50.848;4.334;2023-07-09T08:22:38;26.40;1.00
14475;DHT22;7323;50.848;4.334;2023-07-09T08:25:04;26.40;1.00
14475;DHT22;7323;50.848;4.334;2023-07-09T08:27:29;26.40;1.00
14475;DHT22;7323;50.848;4.334;2023-07-09T08:29:55;26.30;1.00
14475;DHT22;7323;50.848;4.334;2023-07-09T08:32:22;26.30;1.00
14475;DHT22;7323;50.848;4.334;2023-07-09T08:34:48;26.30;1.00
14475;DHT22;7323;50.848;4.334;2023-07-09T08:37:14;26.30;1.00
14475;DHT22;7323;50.848;4.334;2023-07-09T08:39:39;26.30;1.00
14475;DHT22;7323;50.848;4.334;2023-07-09T08:42:23;26.30;1.00
14475;DHT22;7323;50.848;4.334;2023-07-09T08:50:56;26.40;1.00
14475;DHT22;7323;50.848;4.334;2023-07-09T08:53:35;26.50;1.00
14475;DHT22;7323;50.848;4.334;2023-07-09T08:56:02;26.70;1.00
14475;DHT22;7323;50.848;4.334;2023-07-09T08:58:30;26.80;1.00
14475;DHT22;7323;50.848;4.334;2023-07-09T09:01:05;27.00;1.00
14475;DHT22;7323;50.848;4.334;2023-07-09T09:03:42;27.00;1.00
14475;DHT22;7323;50.848;4.334;2023-07-09T09:06:17;27.20;1.00
14475;DHT22;7323;50.848;4.334;2023-07-09T09:11:34;27.70;1.00
14475;DHT22;7323;50.848;4.334;2023-07-09T09:14:18;27.70;99.90
14475;DHT22;7323;50.848;4.334;2023-07-09T09:16:46;27.90;99.90
14475;DHT22;7323;50.848;4.334;2023-07-09T09:20:15;27.60;99.90
14475;DHT22;7323;50.848;4.334;2023-07-09T09:23:15;27.80;99.90
14475;DHT22;7323;50.848;4.334;2023-07-09T09:25:28;27.60;99.90
14475;DHT22;7323;50.848;4.334;2023-07-09T09:27:54;27.80;99.90
14475;DHT22;7323;50.848;4.334;2023-07-09T09:30:23;27.90;99.90
14475;DHT22;7323;50.848;4.334;2023-07-09T09:32:59;28.00;99.90
14475;DHT22;7323;50.848;4.334;2023-07-09T09:35:38;28.00;99.90
14475;DHT22;7323;50.848;4.334;2023-07-09T09:38:18;28.20;99.90
14475;DHT22;7323;50.848;4.334;2023-07-09T09:40:44;28.20;99.90
14475;DHT22;7323;50.848;4.334;2023-07-09T09:43:20;28.00;99.90
14475;DHT22;7323;50.848;4.334;2023-07-09T09:45:49;27.90;1.00
14475;DHT22;7323;50.848;4.334;2023-07-09T09:48:19;28.10;1.00
14475;DHT22;7323;50.848;4.334;2023-07-09T09:50:47;28.30;99.90
14475;DHT22;7323;50.848;4.334;2023-07-09T09:53:37;28.10;99.90
14475;DHT22;7323;50.848;4.334;2023-07-09T09:56:11;27.80;1.00
14475;DHT22;7323;50.848;4.334;2023-07-09T09:59:00;27.90;1.00
14475;DHT22;7323;50.848;4.334;2023-07-09T10:01:35;27.90;1.00
14475;DHT22;7323;50.848;4.334;2023-07-09T10:04:04;27.90;1.00
14475;DHT22;7323;50.848;4.334;2023-07-09T10:06:38;27.60;1.00
14475;DHT22;7323;50.848;4.334;2023-07-09T10:09:46;27.70;1.00
14475;DHT22;7323;50.848;4.334;2023-07-09T10:12:52;27.80;99.90
14475;DHT22;7323;50.848;4.334;2023-07-09T10:15:34;27.60;1.00
14475;DHT22;7323;50.848;4.334;2023-07-09T10:21:06;27.60;1.00
14475;DHT22;7323;50.848;4.334;2023-07-09T10:23:53;27.70;1.00
14475;DHT22;7323;50.848;4.334;2023-07-09T10:32:31;27.80;1.00
14475;DHT22;7323;50.848;4.334;2023-07-09T10:40:47;27.50;1.00
14475;DHT22;7323;50.848;4.334;2023-07-09T10:43:37;27.50;1.00
14475;DHT22;7323;50.848;4.334;2023-07-09T10:46:17;27.50;1.00
14475;DHT22;7323;50.848;4.334;2023-07-09T10:48:48;27.40;1.00
14475;DHT22;7323;50.848;4.334;2023-07-09T10:51:33;27.20;1.00
14475;DHT22;7323;50.848;4.334;2023-07-09T10:56:56;27.10;1.00
14475;DHT22;7323;50.848;4.334;2023-07-09T10:59:29;27.40;1.00
14475;DHT22;7323;50.848;4.334;2023-07-09T11:04:46;27.50;1.00
14475;DHT22;7323;50.848;4.334;2023-07-09T11:07:17;27.50;1.00
14475;DHT22;7323;50.848;4.334;2023-07-09T11:09:46;27.30;1.00
14475;DHT22;7323;50.848;4.334;2023-07-09T11:13:26;27.40;1.00
14475;DHT22;7323;50.848;4.334;2023-07-09T11:15:25;27.50;1.00
14475;DHT22;7323;50.848;4.334;2023-07-09T11:17:52;27.60;1.00
14475;DHT22;7323;50.848;4.334;2023-07-09T11:20:25;27.50;1.00
14475;DHT22;7323;50.848;4.334;2023-07-09T11:22:53;27.40;1.00
14475;DHT22;7323;50.848;4.334;2023-07-09T11:25:29;27.40;1.00
14475;DHT22;7323;50.848;4.334;2023-07-09T11:28:03;27.40;1.00
14475;DHT22;7323;50.848;4.334;2023-07-09T11:30:32;27.30;1.00
14475;DHT22;7323;50.848;4.334;2023-07-09T11:33:03;27.20;1.00
14475;DHT22;7323;50.848;4.334;2023-07-09T11:35:46;27.10;1.00
14475;DHT22;7323;50.848;4.334;2023-07-09T11:38:23;27.10;1.00
14475;DHT22;7323;50.848;4.334;2023-07-09T11:40:51;27.10;1.00
14475;DHT22;7323;50.848;4.334;2023-07-09T11:43:35;27.20;1.00
14475;DHT22;7323;50.848;4.334;2023-07-09T11:46:22;27.10;1.00
14475;DHT22;7323;50.848;4.334;2023-07-09T11:48:49;27.00;1.00
14475;DHT22;7323;50.848;4.334;2023-07-09T11:51:30;26.80;1.00
14475;DHT22;7323;50.848;4.334;2023-07-09T11:54:00;26.80;1.00
14475;DHT22;7323;50.848;4.334;2023-07-09T11:56:26;26.70;1.00
14475;DHT22;7323;50.848;4.334;2023-07-09T11:58:55;26.70;1.00
14475;DHT22;7323;50.848;4.334;2023-07-09T12:01:45;26.70;1.00
14475;DHT22;7323;50.848;4.334;2023-07-09T12:04:17;26.80;1.00
14475;DHT22;7323;50.848;4.334;2023-07-09T12:06:44;26.80;1.00
14475;DHT22;7323;50.848;4.334;2023-07-09T12:09:18;26.80;1.00
14475;DHT22;7323;50.848;4.334;2023-07-09T12:11:49;26.80;1.00
14475;DHT22;7323;50.848;4.334;2023-07-09T12:14:21;26.80;1.00
14475;DHT22;7323;50.848;4.334;2023-07-09T12:16:53;26.90;1.00
14475;DHT22;7323;50.848;4.334;2023-07-09T12:19:22;26.90;1.00
14475;DHT22;7323;50.848;4.334;2023-07-09T12:21:51;26.80;1.00
14475;DHT22;7323;50.848;4.334;2023-07-09T12:24:27;26.70;1.00
14475;DHT22;7323;50.848;4.334;2023-07-09T12:26:56;26.50;1.00
14475;DHT22;7323;50.848;4.334;2023-07-09T12:29:28;26.00;1.00
14475;DHT22;7323;50.848;4.334;2023-07-09T12:31:58;25.70;1.00
14475;DHT22;7323;50.848;4.334;2023-07-09T12:34:25;25.50;1.00
14475;DHT22;7323;50.848;4.334;2023-07-09T12:36:53;25.40;1.00
14475;DHT22;7323;50.848;4.334;2023-07-09T12:39:25;25.10;1.00
14475;DHT22;7323;50.848;4.334;2023-07-09T12:41:55;24.80;10.70
14475;DHT22;7323;50.848;4.334;2023-07-09T12:44:23;24.90;11.40
14475;DHT22;7323;50.848;4.334;2023-07-09T12:46:55;24.90;21.00
14475;DHT22;7323;50.848;4.334;2023-07-09T12:49:24;25.10;13.20
14475;DHT22;7323;50.848;4.334;2023-07-09T12:51:51;25.20;7.30
14475;DHT22;7323;50.848;4.334;2023-07-09T12:54:20;24.90;11.40
14475;DHT22;7323;50.848;4.334;2023-07-09T12:56:54;24.70;19.10
14475;DHT22;7323;50.848;4.334;2023-07-09T12:59:26;24.40;27.00
14475;DHT22;7323;50.848;4.334;2023-07-09T13:02:01;24.40;34.30
14475;DHT22;7323;50.848;4.334;2023-07-09T13:04:32;24.20;31.90
14475;DHT22;7323;50.848;4.334;2023-07-09T13:06:58;24.00;49.50
14475;DHT22;7323;50.848;4.334;2023-07-09T13:09:26;23.80;56.80
14475;DHT22;7323;50.848;4.334;2023-07-09T13:11:52;23.70;70.70
14475;DHT22;7323;50.848;4.334;2023-07-09T13:14:24;23.60;76.20
14475;DHT22;7323;50.848;4.334;2023-07-09T13:16:50;23.70;79.00
14475;DHT22;7323;50.848;4.334;2023-07-09T13:19:17;23.60;80.30
14475;DHT22;7323;50.848;4.334;2023-07-09T13:21:44;23.60;81.50
14475;DHT22;7323;50.848;4.334;2023-07-09T13:24:20;23.50;85.50
14475;DHT22;7323;50.848;4.334;2023-07-09T13:26:49;23.50;85.90
14475;DHT22;7323;50.848;4.334;2023-07-09T13:29:16;23.50;85.90
14475;DHT22;7323;50.848;4.334;2023-07-09T13:31:44;23.50;81.70
14475;DHT22;7323;50.848;4.334;2023-07-09T13:34:25;23.40;78.80
14475;DHT22;7323;50.848;4.334;2023-07-09T13:36:53;23.50;75.30
14475;DHT22;7323;50.848;4.334;2023-07-09T13:39:20;23.50;80.00
14475;DHT22;7323;50.848;4.334;2023-07-09T13:41:50;23.60;75.30
14475;DHT22;7323;50.848;4.334;2023-07-09T13:44:29;23.70;59.50
14475;DHT22;7323;50.848;4.334;2023-07-09T13:46:58;23.70;47.70
14475;DHT22;7323;50.848;4.334;2023-07-09T13:49:25;23.80;46.50
14475;DHT22;7323;50.848;4.334;2023-07-09T13:51:55;24.00;48.20
14475;DHT22;7323;50.848;4.334;2023-07-09T13:54:28;23.80;39.90
14475;DHT22;7323;50.848;4.334;2023-07-09T13:57:01;23.70;40.30
14475;DHT22;7323;50.848;4.334;2023-07-09T13:59:27;24.00;46.30
14475;DHT22;7323;50.848;4.334;2023-07-09T14:01:57;24.10;36.10
14475;DHT22;7323;50.848;4.334;2023-07-09T14:04:28;24.30;33.80
14475;DHT22;7323;50.848;4.334;2023-07-09T14:06:54;24.50;26.50
14475;DHT22;7323;50.848;4.334;2023-07-09T14:09:20;24.60;22.50
14475;DHT22;7323;50.848;4.334;2023-07-09T14:11:53;24.90;18.60
14475;DHT22;7323;50.848;4.334;2023-07-09T14:14:24;25.00;8.40
14475;DHT22;7323;50.848;4.334;2023-07-09T14:16:51;25.20;1.00
14475;DHT22;7323;50.848;4.334;2023-07-09T14:19:19;25.30;1.00
14475;DHT22;7323;50.848;4.334;2023-07-09T14:21:46;25.40;1.00
14475;DHT22;7323;50.848;4.334;2023-07-09T14:24:26;25.40;1.00
14475;DHT22;7323;50.848;4.334;2023-07-09T14:26:55;25.40;1.00
14475;DHT22;7323;50.848;4.334;2023-07-09T14:29:22;25.40;1.00
14475;DHT22;7323;50.848;4.334;2023-07-09T14:31:51;25.70;1.00
14475;DHT22;7323;50.848;4.334;2023-07-09T14:34:27;25.90;1.00
14475;DHT22;7323;50.848;4.334;2023-07-09T14:36:55;25.90;1.00
14475;DHT22;7323;50.848;4.334;2023-07-09T14:39:22;25.80;1.00
14475;DHT22;7323;50.848;4.334;2023-07-09T14:41:49;25.80;1.00
14475;DHT22;7323;50.848;4.334;2023-07-09T14:44:27;25.70;1.00
14475;DHT22;7323;50.848;4.334;2023-07-09T14:46:55;25.70;1.00
14475;DHT22;7323;50.848;4.334;2023-07-09T14:49:21;25.90;1.00
14475;DHT22;7323;50.848;4.334;2023-07-09T14:51:48;26.20;1.00
14475;DHT22;7323;50.848;4.334;2023-07-09T14:54:22;26.30;1.00
14475;DHT22;7323;50.848;4.334;2023-07-09T14:56:49;26.30;1.00
14475;DHT22;7323;50.848;4.334;2023-07-09T14:59:15;26.40;1.00
14475;DHT22;7323;50.848;4.334;2023-07-09T15:01:43;26.40;1.00
14475;DHT22;7323;50.848;4.334;2023-07-09T15:06:48;26.60;1.00
14475;DHT22;7323;50.848;4.334;2023-07-09T15:09:14;26.70;1.00
14475;DHT22;7323;50.848;4.334;2023-07-09T15:11:40;27.00;1.00
14475;DHT22;7323;50.848;4.334;2023-07-09T15:14:12;27.20;1.00
14475;DHT22;7323;50.848;4.334;2023-07-09T15:16:38;27.40;1.00
14475;DHT22;7323;50.848;4.334;2023-07-09T15:19:22;27.80;1.00
14475;DHT22;7323;50.848;4.334;2023-07-09T15:21:49;27.70;1.00
14475;DHT22;7323;50.848;4.334;2023-07-09T15:24:30;27.60;1.00
14475;DHT22;7323;50.848;4.334;2023-07-09T15:26:56;27.90;1.00
14475;DHT22;7323;50.848;4.334;2023-07-09T15:29:25;28.10;1.00
14475;DHT22;7323;50.848;4.334;2023-07-09T15:31:50;28.00;1.00
14475;DHT22;7323;50.848;4.334;2023-07-09T15:34:17;27.80;1.00
14475;DHT22;7323;50.848;4.334;2023-07-09T15:36:48;27.90;1.00
14475;DHT22;7323;50.848;4.334;2023-07-09T15:39:15;27.90;1.00
14475;DHT22;7323;50.848;4.334;2023-07-09T15:41:41;27.80;1.00
14475;DHT22;7323;50.848;4.334;2023-07-09T15:44:14;27.60;1.00
14475;DHT22;7323;50.848;4.334;2023-07-09T15:46:52;27.40;1.00
14475;DHT22;7323;50.848;4.334;2023-07-09T15:49:19;27.40;1.00
14475;DHT22;7323;50.848;4.334;2023-07-09T15:51:47;27.30;1.00
14475;DHT22;7323;50.848;4.334;2023-07-09T15:54:19;27.20;1.00
14475;DHT22;7323;50.848;4.334;2023-07-09T15:56:46;27.00;1.00
14475;DHT22;7323;50.848;4.334;2023-07-09T16:01:48;26.90;1.00
14475;DHT22;7323;50.848;4.334;2023-07-09T16:04:14;26.90;1.00
14475;DHT22;7323;50.848;4.334;2023-07-09T16:06:44;26.90;1.00
14475;DHT22;7323;50.848;4.334;2023-07-09T16:09:13;26.50;1.00
14475;DHT22;7323;50.848;4.334;2023-07-09T16:11:51;26.10;1.00
14475;DHT22;7323;50.848;4.334;2023-07-09T16:14:30;25.60;1.00
14475;DHT22;7323;50.848;4.334;2023-07-09T16:16:58;25.40;1.00
14475;DHT22;7323;50.848;4.334;2023-07-09T16:19:27;25.50;1.00
14475;DHT22;7323;50.848;4.334;2023-07-09T16:21:59;25.50;1.00
14475;DHT22;7323;50.848;4.334;2023-07-09T16:24:27;25.30;1.00
14475;DHT22;7323;50.848;4.334;2023-07-09T16:26:55;25.30;1.00
14475;DHT22;7323;50.848;4.334;2023-07-09T16:29:29;25.20;1.00
14475;DHT22;7323;50.848;4.334;2023-07-09T16:32:03;25.20;1.00
14475;DHT22;7323;50.848;4.334;2023-07-09T16:34:30;25.10;1.00
14475;DHT22;7323;50.848;4.334;2023-07-09T16:36:57;25.00;1.00
14475;DHT22;7323;50.848;4.334;2023-07-09T16:39:41;25.00;1.00
14475;DHT22;7323;50.848;4.334;2023-07-09T16:42:13;25.00;1.00
14475;DHT22;7323;50.848;4.334;2023-07-09T16:44:39;24.90;1.00
14475;DHT22;7323;50.848;4.334;2023-07-09T16:47:16;24.80;1.00
14475;DHT22;7323;50.848;4.334;2023-07-09T16:49:42;24.80;1.00
14475;DHT22;7323;50.848;4.334;2023-07-09T16:52:19;24.70;1.00
14475;DHT22;7323;50.848;4.334;2023-07-09T16:54:46;24.60;1.00
14475;DHT22;7323;50.848;4.334;2023-07-09T16:57:20;24.40;1.00